createdAt,value
2022-09-12T00:00:23.039Z,11.77
2022-09-12T00:02:56.026Z,10.10
2022-09-12T00:05:22.559Z,10.00
2022-09-12T00:07:48.887Z,9.13
2022-09-12T00:10:15.666Z,10.50
2022-09-12T00:12:42.027Z,10.93
2022-09-12T00:15:08.938Z,8.53
2022-09-12T00:17:35.671Z,10.00
2022-09-12T00:20:02.861Z,10.73
2022-09-12T00:22:29.142Z,10.77
2022-09-12T00:24:55.450Z,11.10
2022-09-12T00:27:21.851Z,10.20
2022-09-12T00:29:48.185Z,11.53
2022-09-12T00:32:14.502Z,9.27
2022-09-12T00:34:40.998Z,10.33
2022-09-12T00:37:07.330Z,10.93
2022-09-12T00:39:33.632Z,9.80
2022-09-12T00:41:59.943Z,12.80
2022-09-12T00:44:26.166Z,8.07
2022-09-12T00:47:01.175Z,8.97
2022-09-12T00:49:56.643Z,10.00
2022-09-12T00:52:36.111Z,10.23
2022-09-12T00:55:08.151Z,8.93
2022-09-12T00:57:38.221Z,10.73
2022-09-12T01:00:15.536Z,11.83
2022-09-12T01:02:44.549Z,9.93
2022-09-12T01:05:11.415Z,8.27
2022-09-12T01:07:40.240Z,9.53
2022-09-12T01:10:07.871Z,9.87
2022-09-12T01:12:34.950Z,9.77
2022-09-12T01:15:01.247Z,9.47
2022-09-12T01:17:34.643Z,11.43
2022-09-12T01:20:35.241Z,11.80
2022-09-12T01:23:12.130Z,8.20
2022-09-12T01:25:51.925Z,9.57
2022-09-12T01:28:50.649Z,11.10
2022-09-12T01:31:27.011Z,13.67
2022-09-12T01:34:15.509Z,10.23
2022-09-12T01:36:57.422Z,10.67
2022-09-12T01:39:30.098Z,8.47
2022-09-12T01:41:59.241Z,9.30
2022-09-12T01:44:35.798Z,8.70
2022-09-12T01:47:12.650Z,8.70
2022-09-12T01:49:54.603Z,9.17
2022-09-12T01:52:27.500Z,11.93
2022-09-12T01:55:13.722Z,9.67
2022-09-12T01:57:44.795Z,10.60
2022-09-12T02:00:12.612Z,8.50
2022-09-12T02:02:42.068Z,9.17
2022-09-12T02:05:11.205Z,8.73
2022-09-12T02:08:04.309Z,9.97
2022-09-12T02:10:34.335Z,7.90
2022-09-12T02:13:12.587Z,8.43
2022-09-12T02:15:47.657Z,9.30
2022-09-12T02:18:17.911Z,8.83
2022-09-12T02:20:48.514Z,7.53
2022-09-12T02:23:27.645Z,8.43
2022-09-12T02:26:01.879Z,8.47
2022-09-12T02:28:32.430Z,8.60
2022-09-12T02:31:20.163Z,9.03
2022-09-12T02:34:10.456Z,10.77
2022-09-12T02:36:59.308Z,10.57
2022-09-12T02:39:25.602Z,9.47
2022-09-12T02:41:52.942Z,9.23
2022-09-12T02:44:19.780Z,8.73
2022-09-12T02:46:49.818Z,8.37
2022-09-12T02:49:16.820Z,8.30
2022-09-12T02:51:43.486Z,8.87
2022-09-12T02:54:10.383Z,9.77
2022-09-12T02:56:42.050Z,8.20
2022-09-12T02:59:10.239Z,8.47
2022-09-12T03:01:54.754Z,9.33
2022-09-12T03:04:46.629Z,9.57
2022-09-12T03:07:31.755Z,8.27
2022-09-12T03:10:22.626Z,8.87
2022-09-12T03:13:06.890Z,8.20
2022-09-12T03:15:40.514Z,7.77
2022-09-12T03:18:31.850Z,8.87
2022-09-12T03:21:04.102Z,8.30
2022-09-12T03:23:34.835Z,13.00
2022-09-12T03:26:06.439Z,8.50
2022-09-12T03:28:34.820Z,10.27
2022-09-12T03:31:11.842Z,10.53
2022-09-12T03:33:38.139Z,8.47
2022-09-12T03:36:04.493Z,10.37
2022-09-12T03:38:30.791Z,9.80
2022-09-12T03:40:57.111Z,8.13
2022-09-12T03:43:23.498Z,8.80
2022-09-12T03:45:53.321Z,11.23
2022-09-12T03:48:19.817Z,9.53
2022-09-12T03:50:46.186Z,11.27
2022-09-12T03:53:16.556Z,9.87
2022-09-12T03:55:43.615Z,9.97
2022-09-12T03:58:09.947Z,8.40
2022-09-12T04:00:37.339Z,8.17
2022-09-12T04:03:03.799Z,8.53
2022-09-12T04:05:30.098Z,8.13
2022-09-12T04:07:56.407Z,7.70
2022-09-12T04:10:22.711Z,11.07
2022-09-12T04:12:49.022Z,9.67
2022-09-12T04:15:15.390Z,8.60
2022-09-12T04:17:41.701Z,7.20
2022-09-12T04:20:08.246Z,7.67
2022-09-12T04:22:34.627Z,9.23
2022-09-12T04:25:00.918Z,7.93
2022-09-12T04:27:27.561Z,10.13
2022-09-12T04:29:55.202Z,8.67
2022-09-12T04:32:22.245Z,7.97
2022-09-12T04:34:48.622Z,11.17
2022-09-12T04:37:14.926Z,13.33
2022-09-12T04:39:41.288Z,9.30
2022-09-12T04:42:07.679Z,8.83
2022-09-12T04:44:34.023Z,7.93
2022-09-12T04:47:00.355Z,7.13
2022-09-12T04:49:26.673Z,7.80
2022-09-12T04:51:54.964Z,8.50
2022-09-12T04:54:21.333Z,8.43
2022-09-12T04:56:49.391Z,8.47
2022-09-12T04:59:17.839Z,8.23
2022-09-12T05:01:44.431Z,8.43
2022-09-12T05:04:12.844Z,8.40
2022-09-12T05:06:40.755Z,8.87
2022-09-12T05:09:08.382Z,11.00
2022-09-12T05:12:02.536Z,7.70
2022-09-12T05:14:24.388Z,9.10
2022-09-12T05:16:50.752Z,8.50
2022-09-12T05:19:17.249Z,10.03
2022-09-12T05:21:43.670Z,8.17
2022-09-12T05:24:10.745Z,8.97
2022-09-12T05:26:37.025Z,8.70
2022-09-12T05:29:04.165Z,8.23
2022-09-12T05:31:30.447Z,8.90
2022-09-12T05:33:57.228Z,8.73
2022-09-12T05:36:29.178Z,8.50
2022-09-12T05:38:56.206Z,8.13
2022-09-12T05:41:25.357Z,8.57
2022-09-12T05:44:02.505Z,9.20
2022-09-12T05:46:31.480Z,9.67
2022-09-12T05:49:03.862Z,9.23
2022-09-12T05:51:33.599Z,9.73
2022-09-12T05:54:01.307Z,9.43
2022-09-12T05:56:29.635Z,8.97
2022-09-12T05:58:59.174Z,9.07
2022-09-12T06:01:27.045Z,8.40
2022-09-12T06:03:54.993Z,7.93
2022-09-12T06:06:23.593Z,10.70
2022-09-12T06:08:52.167Z,9.40
2022-09-12T06:11:25.934Z,8.47
2022-09-12T06:13:52.782Z,8.97
2022-09-12T06:16:24.563Z,8.87
2022-09-12T06:18:53.599Z,7.20
2022-09-12T06:21:21.663Z,14.57
2022-09-12T06:23:48.563Z,8.57
2022-09-12T06:26:17.343Z,9.03
2022-09-12T06:28:44.966Z,9.13
2022-09-12T06:31:16.259Z,10.30
2022-09-12T06:33:44.424Z,8.97
2022-09-12T06:36:19.402Z,8.07
2022-09-12T06:38:48.888Z,10.63
2022-09-12T06:41:15.745Z,11.97
2022-09-12T06:43:42.539Z,11.67
2022-09-12T06:46:09.861Z,10.60
2022-09-12T06:48:41.020Z,11.47
2022-09-12T06:51:13.519Z,15.18
2022-09-12T06:53:40.455Z,18.27
2022-09-12T06:56:09.766Z,16.13
2022-09-12T06:58:36.635Z,17.60
2022-09-12T07:01:08.343Z,17.10
2022-09-12T07:03:35.206Z,14.90
2022-09-12T07:06:06.164Z,12.02
2022-09-12T07:08:34.017Z,13.90
2022-09-12T07:11:07.870Z,14.20
2022-09-12T07:13:34.205Z,16.00
2022-09-12T07:16:05.374Z,15.02
2022-09-12T07:18:33.420Z,14.27
2022-09-12T07:21:01.792Z,13.43
2022-09-12T07:23:29.307Z,14.65
2022-09-12T07:25:57.072Z,17.30
2022-09-12T07:28:27.207Z,12.00
2022-09-12T07:30:53.989Z,12.65
2022-09-12T07:33:21.354Z,13.82
2022-09-12T07:35:47.869Z,11.57
2022-09-12T07:38:14.166Z,12.75
2022-09-12T07:40:40.623Z,12.77
2022-09-12T07:43:06.950Z,9.77
2022-09-12T07:45:33.435Z,10.40
2022-09-12T07:47:59.726Z,11.45
2022-09-12T07:50:26.622Z,7.38
2022-09-12T07:52:55.911Z,8.05
2022-09-12T07:55:22.458Z,7.65
2022-09-12T07:57:52.595Z,8.88
2022-09-12T08:00:19.084Z,8.93
2022-09-12T08:02:45.456Z,7.13
2022-09-12T08:05:11.770Z,8.20
2022-09-12T08:07:38.185Z,8.02
2022-09-12T08:10:05.939Z,9.43
2022-09-12T08:12:32.240Z,6.90
2022-09-12T08:14:58.535Z,8.82
2022-09-12T08:17:24.826Z,7.43
2022-09-12T08:19:51.191Z,10.05
2022-09-12T08:22:21.663Z,6.78
2022-09-12T08:24:48.522Z,11.13
2022-09-12T08:27:15.358Z,8.57
2022-09-12T08:29:41.687Z,7.28
2022-09-12T08:32:08.134Z,8.23
2022-09-12T08:34:34.470Z,7.32
2022-09-12T08:37:00.855Z,7.90
2022-09-12T08:39:27.407Z,7.03
2022-09-12T08:42:03.046Z,9.05
2022-09-12T08:44:47.507Z,8.85
2022-09-12T08:47:22.045Z,7.00
2022-09-12T08:49:51.392Z,6.88
2022-09-12T08:52:29.258Z,11.45
2022-09-12T08:54:56.328Z,5.22
2022-09-12T08:57:23.927Z,6.38
2022-09-12T08:59:51.107Z,9.48
2022-09-12T09:02:45.792Z,8.38
2022-09-12T09:05:35.039Z,6.22
2022-09-12T09:08:26.771Z,7.90
2022-09-12T09:11:11.816Z,7.07
2022-09-12T09:14:19.352Z,8.18
2022-09-12T09:16:48.222Z,7.75
2022-09-12T09:19:25.231Z,6.03
2022-09-12T09:21:56.319Z,6.93
2022-09-12T09:24:27.755Z,6.18
2022-09-12T09:27:18.328Z,6.75
2022-09-12T09:29:54.718Z,5.25
2022-09-12T09:32:31.318Z,5.28
2022-09-12T09:34:57.629Z,5.63
2022-09-12T09:37:30.981Z,6.53
2022-09-12T09:40:27.471Z,5.13
2022-09-12T09:43:19.527Z,6.15
2022-09-12T09:45:47.936Z,7.80
2022-09-12T09:48:32.861Z,5.40
2022-09-12T09:51:01.710Z,10.23
2022-09-12T09:53:36.299Z,5.65
2022-09-12T09:56:07.474Z,6.97
2022-09-12T09:58:34.951Z,7.55
2022-09-12T10:01:03.385Z,6.95
2022-09-12T10:03:39.911Z,5.22
2022-09-12T10:06:09.026Z,6.32
2022-09-12T10:08:38.617Z,5.57
2022-09-12T10:11:19.273Z,7.03
2022-09-12T10:13:57.466Z,7.80
2022-09-12T10:16:27.677Z,5.60
2022-09-12T10:18:56.138Z,6.25
2022-09-12T10:21:45.915Z,5.82
2022-09-12T10:24:32.718Z,6.05
2022-09-12T10:27:12.923Z,7.45
2022-09-12T10:29:46.430Z,7.00
2022-09-12T10:32:19.228Z,5.78
2022-09-12T10:34:45.694Z,5.50
2022-09-12T10:37:24.366Z,5.43
2022-09-12T10:39:53.659Z,5.85
2022-09-12T10:42:49.530Z,5.70
2022-09-12T10:45:37.509Z,8.43
2022-09-12T10:48:28.830Z,6.45
2022-09-12T10:50:56.722Z,8.45
2022-09-12T10:53:29.974Z,5.78
2022-09-12T10:56:03.079Z,5.32
2022-09-12T10:58:49.751Z,6.30
2022-09-12T11:01:21.313Z,5.20
2022-09-12T11:04:19.740Z,7.10
2022-09-12T11:07:10.905Z,6.47
2022-09-12T11:09:52.581Z,8.57
2022-09-12T11:12:32.770Z,5.85
2022-09-12T11:15:11.241Z,6.55
2022-09-12T11:18:01.416Z,5.88
2022-09-12T11:20:52.623Z,4.72
2022-09-12T11:23:37.274Z,6.95
2022-09-12T11:26:32.204Z,5.22
2022-09-12T11:29:20.331Z,6.05
2022-09-12T11:32:18.758Z,6.35
2022-09-12T11:34:53.074Z,5.05
2022-09-12T11:37:30.535Z,5.65
2022-09-12T11:40:00.405Z,5.22
2022-09-12T11:42:35.317Z,5.40
2022-09-12T11:45:40.213Z,5.65
2022-09-12T11:48:11.937Z,5.50
2022-09-12T11:50:38.327Z,7.32
2022-09-12T11:53:17.178Z,8.77
2022-09-12T11:55:56.878Z,9.05
2022-09-12T11:58:25.419Z,6.78
2022-09-12T12:00:54.579Z,7.07
2022-09-12T12:03:30.874Z,6.25
2022-09-12T12:06:19.081Z,5.13
2022-09-12T12:08:46.200Z,7.55
2022-09-12T12:11:15.322Z,5.32
2022-09-12T12:14:00.027Z,5.60
2022-09-12T12:16:31.652Z,4.60
2022-09-12T12:19:00.178Z,5.25
2022-09-12T12:21:34.974Z,7.97
2022-09-12T12:24:07.322Z,5.03
2022-09-12T12:26:39.928Z,7.97
2022-09-12T12:29:11.060Z,4.65
2022-09-12T12:31:59.260Z,4.07
2022-09-12T12:34:43.355Z,4.25
2022-09-12T12:37:18.702Z,4.18
2022-09-12T12:39:48.196Z,5.18
2022-09-12T12:42:37.428Z,4.72
2022-09-12T12:45:06.491Z,4.47
2022-09-12T12:47:39.255Z,4.28
2022-09-12T12:50:10.444Z,5.13
2022-09-12T12:52:48.352Z,4.75
2022-09-12T12:55:23.718Z,4.63
2022-09-12T12:57:52.681Z,6.03
2022-09-12T13:00:27.634Z,4.32
2022-09-12T13:03:07.555Z,4.63
2022-09-12T13:05:42.014Z,4.05
2022-09-12T13:08:17.365Z,3.72
2022-09-12T13:10:58.307Z,4.75
2022-09-12T13:13:32.537Z,4.53
2022-09-12T13:15:58.867Z,5.10
2022-09-12T13:18:47.062Z,4.43
2022-09-12T13:21:18.381Z,4.15
2022-09-12T13:23:45.523Z,3.22
2022-09-12T13:26:14.162Z,4.28
2022-09-12T13:28:40.546Z,4.53
2022-09-12T13:31:39.514Z,4.00
2022-09-12T13:34:07.033Z,5.22
2022-09-12T13:36:42.210Z,4.85
2022-09-12T13:39:18.807Z,4.53
2022-09-12T13:42:03.783Z,4.80
2022-09-12T13:44:31.044Z,4.50
2022-09-12T13:47:01.235Z,4.47
2022-09-12T13:49:33.042Z,3.83
2022-09-12T13:52:18.654Z,3.70
2022-09-12T13:54:47.663Z,3.80
2022-09-12T13:57:29.532Z,4.80
2022-09-12T13:59:57.441Z,4.72
2022-09-12T14:02:25.720Z,3.65
2022-09-12T14:05:11.702Z,4.25
2022-09-12T14:07:45.867Z,3.17
2022-09-12T14:10:16.678Z,3.03
2022-09-12T14:12:45.753Z,3.95
2022-09-12T14:15:17.711Z,3.35
2022-09-12T14:17:52.043Z,4.63
2022-09-12T14:20:19.786Z,3.45
2022-09-12T14:22:50.932Z,3.17
2022-09-12T14:25:22.902Z,2.80
2022-09-12T14:27:52.671Z,3.10
2022-09-12T14:30:30.303Z,2.55
2022-09-12T14:33:11.437Z,3.35
2022-09-12T14:35:43.250Z,2.80
2022-09-12T14:38:22.030Z,3.00
2022-09-12T14:40:59.029Z,2.50
2022-09-12T14:43:28.778Z,2.83
2022-09-12T14:45:59.375Z,2.90
2022-09-12T14:48:28.250Z,3.42
2022-09-12T14:50:54.605Z,3.53
2022-09-12T14:53:37.478Z,3.33
2022-09-12T14:56:12.362Z,2.78
2022-09-12T14:58:40.375Z,3.38
2022-09-12T15:01:07.041Z,6.43
2022-09-12T15:03:49.436Z,2.85
2022-09-12T15:06:32.885Z,4.53
2022-09-12T15:09:02.494Z,3.60
2022-09-12T15:11:28.892Z,3.50
2022-09-12T15:13:55.215Z,4.03
2022-09-12T15:16:22.920Z,3.60
2022-09-12T15:18:49.339Z,3.45
2022-09-12T15:21:19.850Z,3.30
2022-09-12T15:23:50.692Z,3.70
2022-09-12T15:26:22.422Z,3.75
2022-09-12T15:28:49.862Z,3.95
2022-09-12T15:31:30.199Z,3.28
2022-09-12T15:33:58.002Z,5.00
2022-09-12T15:36:25.459Z,3.38
2022-09-12T15:38:52.397Z,4.05
2022-09-12T15:41:19.450Z,3.88
2022-09-12T15:43:46.549Z,3.97
2022-09-12T15:46:14.183Z,4.10
2022-09-12T15:48:40.581Z,3.45
2022-09-12T15:51:15.677Z,5.18
2022-09-12T15:53:43.143Z,5.05
2022-09-12T15:56:09.542Z,5.18
2022-09-12T15:58:36.099Z,5.05
2022-09-12T16:01:02.458Z,3.50
2022-09-12T16:03:29.801Z,4.15
2022-09-12T16:06:01.406Z,3.45
2022-09-12T16:08:29.450Z,4.10
2022-09-12T16:10:59.007Z,4.72
2022-09-12T16:13:25.824Z,5.55
2022-09-12T16:15:52.783Z,4.05
2022-09-12T16:18:19.142Z,3.42
2022-09-12T16:20:45.491Z,3.58
2022-09-12T16:23:13.110Z,4.38
2022-09-12T16:25:40.278Z,4.10
2022-09-12T16:28:06.718Z,4.20
2022-09-12T16:30:33.656Z,3.50
2022-09-12T16:33:00.062Z,3.90
2022-09-12T16:35:26.812Z,5.38
2022-09-12T16:37:53.237Z,3.67
2022-09-12T16:40:19.776Z,4.18
2022-09-12T16:42:46.202Z,4.38
2022-09-12T16:45:13.048Z,5.10
2022-09-12T16:47:39.482Z,4.80
2022-09-12T16:50:06.567Z,4.07
2022-09-12T16:52:35.934Z,3.88
2022-09-12T16:55:02.225Z,3.83
2022-09-12T16:57:28.525Z,5.97
2022-09-12T16:59:55.119Z,4.35
2022-09-12T17:02:21.512Z,4.13
2022-09-12T17:04:47.858Z,4.30
2022-09-12T17:07:14.184Z,7.97
2022-09-12T17:09:40.530Z,6.13
2022-09-12T17:12:06.916Z,4.03
2022-09-12T17:14:33.223Z,4.63
2022-09-12T17:16:59.611Z,4.15
2022-09-12T17:19:27.941Z,3.35
2022-09-12T17:21:54.650Z,4.43
2022-09-12T17:24:21.386Z,4.85
2022-09-12T17:26:47.710Z,4.10
2022-09-12T17:29:14.123Z,4.32
2022-09-12T17:31:41.355Z,6.18
2022-09-12T17:34:07.762Z,4.57
2022-09-12T17:36:34.053Z,4.97
2022-09-12T17:39:03.547Z,4.95
2022-09-12T17:41:31.808Z,5.28
2022-09-12T17:43:59.554Z,7.53
2022-09-12T17:46:30.839Z,6.78
2022-09-12T17:48:58.176Z,5.88
2022-09-12T17:51:25.817Z,6.25
2022-09-12T17:54:04.526Z,10.70
2022-09-12T17:56:31.692Z,8.20
2022-09-12T17:58:59.022Z,8.73
2022-09-12T18:01:45.024Z,6.45
2022-09-12T18:04:11.473Z,7.63
2022-09-12T18:06:38.398Z,6.68
2022-09-12T18:09:08.037Z,6.57
2022-09-12T18:11:34.554Z,6.35
2022-09-12T18:14:01.304Z,6.18
2022-09-12T18:16:31.316Z,5.22
2022-09-12T18:19:03.343Z,7.07
2022-09-12T18:21:29.889Z,5.53
2022-09-12T18:23:58.839Z,6.70
2022-09-12T18:26:26.534Z,4.75
2022-09-12T18:28:52.904Z,7.05
2022-09-12T18:31:21.814Z,5.82
2022-09-12T18:33:48.208Z,6.40
2022-09-12T18:36:16.030Z,5.72
2022-09-12T18:38:44.044Z,4.78
2022-09-12T18:41:19.131Z,5.70
2022-09-12T18:43:45.948Z,6.43
2022-09-12T18:46:17.468Z,6.18
2022-09-12T18:48:45.017Z,6.60
2022-09-12T18:51:12.442Z,7.15
2022-09-12T18:53:39.161Z,5.13
2022-09-12T18:56:10.922Z,5.57
2022-09-12T18:58:38.889Z,5.90
2022-09-12T19:01:09.248Z,9.27
2022-09-12T19:03:35.884Z,7.43
2022-09-12T19:06:09.089Z,5.07
2022-09-12T19:08:36.243Z,5.75
2022-09-12T19:11:03.273Z,6.47
2022-09-12T19:13:29.902Z,5.70
2022-09-12T19:15:56.308Z,5.93
2022-09-12T19:18:22.753Z,7.05
2022-09-12T19:20:53.059Z,7.13
2022-09-12T19:23:19.570Z,4.70
2022-09-12T19:25:55.697Z,5.75
2022-09-12T19:28:22.019Z,5.93
2022-09-12T19:30:48.535Z,6.25
2022-09-12T19:33:14.879Z,6.10
2022-09-12T19:35:41.224Z,6.13
2022-09-12T19:38:07.511Z,6.57
2022-09-12T19:40:33.813Z,5.68
2022-09-12T19:43:00.122Z,5.32
2022-09-12T19:45:26.415Z,5.25
2022-09-12T19:47:52.827Z,5.88
2022-09-12T19:50:19.699Z,4.80
2022-09-12T19:52:46.033Z,7.57
2022-09-12T19:55:12.486Z,7.22
2022-09-12T19:57:38.786Z,11.95
2022-09-12T20:00:09.278Z,7.15
2022-09-12T20:02:35.883Z,7.70
2022-09-12T20:05:02.289Z,8.18
2022-09-12T20:07:29.219Z,15.70
2022-09-12T20:09:55.634Z,5.53
2022-09-12T20:12:22.378Z,8.52
2022-09-12T20:14:48.699Z,9.38
2022-09-12T20:17:15.005Z,8.68
2022-09-12T20:19:41.339Z,6.38
2022-09-12T20:22:07.725Z,6.30
2022-09-12T20:24:34.158Z,5.68
2022-09-12T20:27:00.445Z,6.03
2022-09-12T20:29:26.734Z,6.97
2022-09-12T20:31:53.147Z,5.68
2022-09-12T20:34:21.182Z,5.32
2022-09-12T20:36:48.278Z,6.43
2022-09-12T20:39:16.883Z,7.63
2022-09-12T20:41:43.250Z,6.30
2022-09-12T20:44:10.026Z,6.25
2022-09-12T20:46:36.363Z,5.53
2022-09-12T20:49:03.285Z,6.38
2022-09-12T20:51:30.337Z,6.05
2022-09-12T20:53:58.054Z,5.70
2022-09-12T20:56:26.931Z,6.78
2022-09-12T20:58:54.327Z,7.95
2022-09-12T21:01:20.853Z,5.72
2022-09-12T21:03:47.684Z,6.97
2022-09-12T21:06:16.828Z,5.57
2022-09-12T21:08:43.665Z,6.45
2022-09-12T21:11:09.984Z,6.63
2022-09-12T21:13:36.893Z,6.90
2022-09-12T21:16:08.715Z,8.88
2022-09-12T21:18:35.730Z,5.47
2022-09-12T21:21:02.186Z,6.60
2022-09-12T21:23:28.898Z,6.05
2022-09-12T21:25:55.426Z,5.45
2022-09-12T21:28:22.348Z,5.05
2022-09-12T21:30:49.525Z,5.63
2022-09-12T21:33:16.270Z,6.25
2022-09-12T21:35:42.589Z,4.70
2022-09-12T21:38:09.227Z,6.20
2022-09-12T21:40:35.621Z,5.82
2022-09-12T21:43:01.942Z,5.82
2022-09-12T21:45:28.597Z,5.80
2022-09-12T21:47:54.911Z,5.03
2022-09-12T21:50:21.215Z,6.53
2022-09-12T21:52:47.644Z,6.30
2022-09-12T21:55:13.965Z,6.90
2022-09-12T21:57:40.455Z,5.00
2022-09-12T22:00:10.574Z,5.53
2022-09-12T22:02:36.885Z,5.23
2022-09-12T22:05:04.050Z,11.73
2022-09-12T22:07:30.563Z,5.10
2022-09-12T22:09:56.874Z,4.33
2022-09-12T22:12:23.164Z,5.00
2022-09-12T22:14:49.581Z,4.03
2022-09-12T22:17:16.180Z,4.70
2022-09-12T22:19:42.469Z,4.57
2022-09-12T22:22:27.152Z,6.33
2022-09-12T22:24:53.453Z,4.33
2022-09-12T22:27:19.750Z,5.32
2022-09-12T22:29:46.048Z,6.33
2022-09-12T22:32:15.179Z,4.50
2022-09-12T22:34:41.527Z,5.80
2022-09-12T22:37:07.839Z,6.23
2022-09-12T22:39:34.139Z,5.73
2022-09-12T22:42:01.494Z,4.77
2022-09-12T22:44:27.779Z,5.07
2022-09-12T22:46:54.129Z,5.60
2022-09-12T22:49:20.535Z,4.70
2022-09-12T22:51:47.182Z,5.63
2022-09-12T22:54:13.495Z,5.13
2022-09-12T22:56:39.986Z,5.27
2022-09-12T22:59:06.998Z,5.67
2022-09-12T23:01:34.626Z,4.70
2022-09-12T23:04:02.569Z,4.20
2022-09-12T23:06:29.377Z,4.40
2022-09-12T23:08:56.164Z,4.40
2022-09-12T23:11:22.939Z,4.57
2022-09-12T23:13:50.696Z,4.77
2022-09-12T23:16:24.908Z,4.90
2022-09-12T23:18:51.847Z,5.63
2022-09-12T23:21:20.223Z,4.90
2022-09-12T23:23:46.666Z,4.90
2022-09-12T23:26:15.457Z,4.83
2022-09-12T23:28:47.957Z,11.00
2022-09-12T23:31:14.379Z,5.17
2022-09-12T23:33:40.802Z,4.40
2022-09-12T23:36:11.265Z,4.70
2022-09-12T23:38:37.581Z,4.97
2022-09-12T23:41:04.531Z,5.87
2022-09-12T23:43:31.206Z,5.50
2022-09-12T23:45:58.084Z,4.37
2022-09-12T23:48:24.748Z,4.73
2022-09-12T23:50:51.591Z,5.43
2022-09-12T23:53:17.983Z,4.40
2022-09-12T23:55:44.777Z,7.30
2022-09-12T23:58:11.911Z,7.03
